sensor_id;sensor_type;location;lat;lon;timestamp;P1;durP1;ratioP1;P2;durP2;ratioP2
17496;SDS011;62150;43.582;1.456;2023-02-28T06:12:55;10.87;;;4.87;;
17496;SDS011;62150;43.582;1.456;2023-02-28T06:15:25;9.33;;;4.57;;
17496;SDS011;62150;43.582;1.456;2023-02-28T06:17:53;10.30;;;5.00;;
17496;SDS011;62150;43.582;1.456;2023-02-28T06:20:21;10.93;;;5.50;;
17496;SDS011;62150;43.582;1.456;2023-02-28T06:22:49;11.43;;;5.57;;
17496;SDS011;62150;43.582;1.456;2023-02-28T06:25:19;12.33;;;6.03;;
17496;SDS011;62150;43.582;1.456;2023-02-28T06:27:47;12.60;;;6.20;;
17496;SDS011;62150;43.582;1.456;2023-02-28T06:30:16;10.97;;;5.30;;
17496;SDS011;62150;43.582;1.456;2023-02-28T06:32:48;11.27;;;5.80;;
17496;SDS011;62150;43.582;1.456;2023-02-28T06:35:17;10.80;;;5.30;;
17496;SDS011;62150;43.582;1.456;2023-02-28T06:37:45;11.70;;;5.20;;
17496;SDS011;62150;43.582;1.456;2023-02-28T06:40:13;12.10;;;6.20;;
17496;SDS011;62150;43.582;1.456;2023-02-28T06:42:41;11.13;;;5.93;;
17496;SDS011;62150;43.582;1.456;2023-02-28T06:45:09;11.10;;;5.87;;
17496;SDS011;62150;43.582;1.456;2023-02-28T06:47:39;10.17;;;5.23;;
17496;SDS011;62150;43.582;1.456;2023-02-28T06:50:09;11.80;;;5.60;;
17496;SDS011;62150;43.582;1.456;2023-02-28T06:52:38;11.20;;;5.53;;
17496;SDS011;62150;43.582;1.456;2023-02-28T06:55:06;9.67;;;5.17;;
17496;SDS011;62150;43.582;1.456;2023-02-28T06:57:35;11.47;;;5.67;;
17496;SDS011;62150;43.582;1.456;2023-02-28T07:00:04;10.63;;;5.70;;
17496;SDS011;62150;43.582;1.456;2023-02-28T07:02:33;11.33;;;5.30;;
17496;SDS011;62150;43.582;1.456;2023-02-28T07:05:04;10.80;;;5.43;;
17496;SDS011;62150;43.582;1.456;2023-02-28T07:07:32;11.77;;;6.20;;
17496;SDS011;62150;43.582;1.456;2023-02-28T07:10:01;9.83;;;5.07;;
17496;SDS011;62150;43.582;1.456;2023-02-28T07:12:29;11.50;;;5.60;;
17496;SDS011;62150;43.582;1.456;2023-02-28T07:14:56;10.63;;;5.30;;
17496;SDS011;62150;43.582;1.456;2023-02-28T07:17:24;10.97;;;5.07;;
17496;SDS011;62150;43.582;1.456;2023-02-28T07:19:51;10.87;;;5.50;;
17496;SDS011;62150;43.582;1.456;2023-02-28T07:22:20;10.70;;;5.50;;
17496;SDS011;62150;43.582;1.456;2023-02-28T07:24:47;11.47;;;5.70;;
17496;SDS011;62150;43.582;1.456;2023-02-28T07:27:15;11.00;;;5.23;;
17496;SDS011;62150;43.582;1.456;2023-02-28T07:29:48;12.40;;;6.37;;
17496;SDS011;62150;43.582;1.456;2023-02-28T07:32:16;11.03;;;5.23;;
17496;SDS011;62150;43.582;1.456;2023-02-28T07:34:44;10.80;;;5.40;;
17496;SDS011;62150;43.582;1.456;2023-02-28T07:37:12;11.13;;;5.67;;
17496;SDS011;62150;43.582;1.456;2023-02-28T07:39:41;11.30;;;5.27;;
17496;SDS011;62150;43.582;1.456;2023-02-28T07:42:08;10.83;;;5.17;;
17496;SDS011;62150;43.582;1.456;2023-02-28T07:44:37;9.43;;;4.77;;
17496;SDS011;62150;43.582;1.456;2023-02-28T07:47:05;8.70;;;4.63;;
17496;SDS011;62150;43.582;1.456;2023-02-28T07:49:36;9.40;;;4.93;;
17496;SDS011;62150;43.582;1.456;2023-02-28T07:52:05;9.30;;;4.50;;
17496;SDS011;62150;43.582;1.456;2023-02-28T07:54:33;12.37;;;5.87;;
17496;SDS011;62150;43.582;1.456;2023-02-28T07:57:02;9.87;;;4.90;;
17496;SDS011;62150;43.582;1.456;2023-02-28T07:59:29;10.30;;;4.87;;
17496;SDS011;62150;43.582;1.456;2023-02-28T08:01:57;11.90;;;5.73;;
17496;SDS011;62150;43.582;1.456;2023-02-28T08:04:25;9.73;;;5.10;;
17496;SDS011;62150;43.582;1.456;2023-02-28T08:06:52;11.67;;;5.53;;
17496;SDS011;62150;43.582;1.456;2023-02-28T08:09:21;11.07;;;5.80;;
17496;SDS011;62150;43.582;1.456;2023-02-28T08:11:49;11.00;;;5.57;;
17496;SDS011;62150;43.582;1.456;2023-02-28T08:14:17;12.63;;;5.83;;
17496;SDS011;62150;43.582;1.456;2023-02-28T08:16:45;10.47;;;4.93;;
17496;SDS011;62150;43.582;1.456;2023-02-28T08:19:12;10.53;;;5.20;;
17496;SDS011;62150;43.582;1.456;2023-02-28T08:21:40;11.17;;;5.60;;
17496;SDS011;62150;43.582;1.456;2023-02-28T08:24:07;10.80;;;5.27;;
17496;SDS011;62150;43.582;1.456;2023-02-28T08:26:35;14.50;;;6.83;;
17496;SDS011;62150;43.582;1.456;2023-02-28T08:29:02;10.23;;;5.07;;
17496;SDS011;62150;43.582;1.456;2023-02-28T08:31:31;11.77;;;5.37;;
17496;SDS011;62150;43.582;1.456;2023-02-28T08:34:00;12.20;;;6.00;;
17496;SDS011;62150;43.582;1.456;2023-02-28T08:36:30;13.00;;;6.83;;
17496;SDS011;62150;43.582;1.456;2023-02-28T08:38:58;10.50;;;5.17;;
17496;SDS011;62150;43.582;1.456;2023-02-28T08:41:25;11.87;;;6.10;;
17496;SDS011;62150;43.582;1.456;2023-02-28T08:43:53;13.93;;;6.43;;
17496;SDS011;62150;43.582;1.456;2023-02-28T08:46:21;12.20;;;5.70;;
17496;SDS011;62150;43.582;1.456;2023-02-28T08:48:52;14.97;;;7.77;;
17496;SDS011;62150;43.582;1.456;2023-02-28T08:51:21;12.90;;;6.23;;
17496;SDS011;62150;43.582;1.456;2023-02-28T08:53:51;11.50;;;5.63;;
17496;SDS011;62150;43.582;1.456;2023-02-28T08:56:20;12.03;;;5.90;;
17496;SDS011;62150;43.582;1.456;2023-02-28T08:58:48;11.47;;;5.77;;
17496;SDS011;62150;43.582;1.456;2023-02-28T09:01:17;14.13;;;6.90;;
17496;SDS011;62150;43.582;1.456;2023-02-28T09:03:47;13.07;;;6.07;;
17496;SDS011;62150;43.582;1.456;2023-02-28T09:06:18;13.60;;;6.03;;
17496;SDS011;62150;43.582;1.456;2023-02-28T09:08:47;11.10;;;5.70;;
17496;SDS011;62150;43.582;1.456;2023-02-28T09:11:14;12.30;;;6.63;;
17496;SDS011;62150;43.582;1.456;2023-02-28T09:13:43;11.70;;;6.27;;
17496;SDS011;62150;43.582;1.456;2023-02-28T09:16:12;11.00;;;5.47;;
17496;SDS011;62150;43.582;1.456;2023-02-28T09:18:42;11.40;;;5.87;;
17496;SDS011;62150;43.582;1.456;2023-02-28T09:21:11;10.17;;;5.17;;
17496;SDS011;62150;43.582;1.456;2023-02-28T09:23:42;12.17;;;6.70;;
17496;SDS011;62150;43.582;1.456;2023-02-28T09:26:13;9.87;;;5.00;;
17496;SDS011;62150;43.582;1.456;2023-02-28T09:28:41;11.60;;;5.73;;
17496;SDS011;62150;43.582;1.456;2023-02-28T09:31:11;11.23;;;5.17;;
17496;SDS011;62150;43.582;1.456;2023-02-28T09:33:40;9.93;;;4.67;;
17496;SDS011;62150;43.582;1.456;2023-02-28T09:36:08;9.83;;;4.40;;
17496;SDS011;62150;43.582;1.456;2023-02-28T09:38:35;12.60;;;5.57;;
17496;SDS011;62150;43.582;1.456;2023-02-28T09:41:11;12.43;;;5.63;;
17496;SDS011;62150;43.582;1.456;2023-02-28T09:43:43;11.23;;;5.50;;
17496;SDS011;62150;43.582;1.456;2023-02-28T09:46:21;11.47;;;5.50;;
17496;SDS011;62150;43.582;1.456;2023-02-28T09:48:56;10.80;;;5.07;;
17496;SDS011;62150;43.582;1.456;2023-02-28T09:51:28;13.67;;;5.90;;
17496;SDS011;62150;43.582;1.456;2023-02-28T09:54:02;12.27;;;5.60;;
17496;SDS011;62150;43.582;1.456;2023-02-28T09:56:33;10.40;;;5.23;;
17496;SDS011;62150;43.582;1.456;2023-02-28T09:59:04;10.67;;;5.30;;
17496;SDS011;62150;43.582;1.456;2023-02-28T10:01:42;10.80;;;5.40;;
17496;SDS011;62150;43.582;1.456;2023-02-28T10:04:21;12.57;;;6.53;;
17496;SDS011;62150;43.582;1.456;2023-02-28T10:07:03;11.33;;;5.50;;
17496;SDS011;62150;43.582;1.456;2023-02-28T10:09:43;10.50;;;4.73;;
17496;SDS011;62150;43.582;1.456;2023-02-28T10:12:16;12.33;;;5.73;;
17496;SDS011;62150;43.582;1.456;2023-02-28T10:14:46;11.10;;;5.77;;
17496;SDS011;62150;43.582;1.456;2023-02-28T10:17:18;11.73;;;5.80;;
17496;SDS011;62150;43.582;1.456;2023-02-28T10:19:50;11.00;;;5.53;;
17496;SDS011;62150;43.582;1.456;2023-02-28T10:22:34;11.03;;;5.20;;
17496;SDS011;62150;43.582;1.456;2023-02-28T10:25:16;9.70;;;4.70;;
17496;SDS011;62150;43.582;1.456;2023-02-28T10:27:47;10.47;;;4.83;;
17496;SDS011;62150;43.582;1.456;2023-02-28T10:30:15;10.17;;;4.87;;
17496;SDS011;62150;43.582;1.456;2023-02-28T10:32:44;11.47;;;5.43;;
17496;SDS011;62150;43.582;1.456;2023-02-28T10:35:19;10.10;;;4.70;;
17496;SDS011;62150;43.582;1.456;2023-02-28T10:37:48;10.20;;;4.83;;
17496;SDS011;62150;43.582;1.456;2023-02-28T10:40:26;10.97;;;5.37;;
17496;SDS011;62150;43.582;1.456;2023-02-28T10:43:01;11.03;;;5.33;;
17496;SDS011;62150;43.582;1.456;2023-02-28T10:45:30;11.33;;;5.40;;
17496;SDS011;62150;43.582;1.456;2023-02-28T10:48:01;13.70;;;5.97;;
17496;SDS011;62150;43.582;1.456;2023-02-28T10:50:35;11.00;;;5.40;;
17496;SDS011;62150;43.582;1.456;2023-02-28T10:53:14;11.80;;;5.30;;
17496;SDS011;62150;43.582;1.456;2023-02-28T10:55:58;12.20;;;5.17;;
17496;SDS011;62150;43.582;1.456;2023-02-28T10:58:29;11.40;;;5.40;;
17496;SDS011;62150;43.582;1.456;2023-02-28T11:00:58;11.53;;;4.97;;
17496;SDS011;62150;43.582;1.456;2023-02-28T11:03:30;11.10;;;5.90;;
17496;SDS011;62150;43.582;1.456;2023-02-28T11:05:59;11.67;;;5.10;;
17496;SDS011;62150;43.582;1.456;2023-02-28T11:08:32;10.17;;;5.27;;
17496;SDS011;62150;43.582;1.456;2023-02-28T11:11:09;11.27;;;5.77;;
17496;SDS011;62150;43.582;1.456;2023-02-28T11:13:38;11.03;;;5.10;;
17496;SDS011;62150;43.582;1.456;2023-02-28T11:16:07;10.60;;;5.23;;
17496;SDS011;62150;43.582;1.456;2023-02-28T11:18:39;11.40;;;5.73;;
17496;SDS011;62150;43.582;1.456;2023-02-28T11:21:14;10.27;;;4.87;;
17496;SDS011;62150;43.582;1.456;2023-02-28T11:23:44;11.43;;;5.43;;
17496;SDS011;62150;43.582;1.456;2023-02-28T11:26:13;11.30;;;5.40;;
17496;SDS011;62150;43.582;1.456;2023-02-28T11:28:43;11.57;;;5.37;;
17496;SDS011;62150;43.582;1.456;2023-02-28T11:31:15;9.83;;;4.77;;
17496;SDS011;62150;43.582;1.456;2023-02-28T11:33:45;10.97;;;5.30;;
17496;SDS011;62150;43.582;1.456;2023-02-28T11:36:24;10.60;;;4.97;;
17496;SDS011;62150;43.582;1.456;2023-02-28T11:38:54;10.20;;;5.20;;
17496;SDS011;62150;43.582;1.456;2023-02-28T11:41:37;10.80;;;5.37;;
17496;SDS011;62150;43.582;1.456;2023-02-28T11:44:23;11.80;;;5.83;;
17496;SDS011;62150;43.582;1.456;2023-02-28T11:47:02;11.53;;;5.37;;
17496;SDS011;62150;43.582;1.456;2023-02-28T11:49:37;11.17;;;5.03;;
17496;SDS011;62150;43.582;1.456;2023-02-28T11:52:19;11.40;;;5.57;;
17496;SDS011;62150;43.582;1.456;2023-02-28T11:55:04;10.43;;;5.50;;
17496;SDS011;62150;43.582;1.456;2023-02-28T11:57:52;10.93;;;5.10;;
17496;SDS011;62150;43.582;1.456;2023-02-28T12:00:40;10.90;;;5.43;;
17496;SDS011;62150;43.582;1.456;2023-02-28T12:03:28;12.67;;;5.73;;
17496;SDS011;62150;43.582;1.456;2023-02-28T12:06:08;11.27;;;5.53;;
17496;SDS011;62150;43.582;1.456;2023-02-28T12:08:47;10.93;;;5.03;;
17496;SDS011;62150;43.582;1.456;2023-02-28T12:11:27;11.63;;;5.10;;
17496;SDS011;62150;43.582;1.456;2023-02-28T12:14:18;9.93;;;4.80;;
17496;SDS011;62150;43.582;1.456;2023-02-28T12:17:04;9.63;;;4.73;;
17496;SDS011;62150;43.582;1.456;2023-02-28T12:19:42;11.90;;;5.30;;
17496;SDS011;62150;43.582;1.456;2023-02-28T12:22:22;12.10;;;5.33;;
17496;SDS011;62150;43.582;1.456;2023-02-28T12:25:00;9.97;;;4.90;;
17496;SDS011;62150;43.582;1.456;2023-02-28T12:27:48;11.50;;;5.80;;
17496;SDS011;62150;43.582;1.456;2023-02-28T12:30:19;10.33;;;5.07;;
17496;SDS011;62150;43.582;1.456;2023-02-28T12:32:52;11.60;;;5.50;;
17496;SDS011;62150;43.582;1.456;2023-02-28T12:35:24;11.27;;;5.07;;
17496;SDS011;62150;43.582;1.456;2023-02-28T12:37:59;10.37;;;5.27;;
17496;SDS011;62150;43.582;1.456;2023-02-28T12:40:33;11.53;;;5.47;;
17496;SDS011;62150;43.582;1.456;2023-02-28T12:43:09;13.17;;;6.40;;
17496;SDS011;62150;43.582;1.456;2023-02-28T12:45:42;12.37;;;6.17;;
17496;SDS011;62150;43.582;1.456;2023-02-28T12:48:15;12.27;;;6.43;;
17496;SDS011;62150;43.582;1.456;2023-02-28T12:50:47;12.37;;;5.90;;
17496;SDS011;62150;43.582;1.456;2023-02-28T12:53:18;10.93;;;5.40;;
17496;SDS011;62150;43.582;1.456;2023-02-28T12:55:57;11.10;;;5.13;;
17496;SDS011;62150;43.582;1.456;2023-02-28T12:58:36;10.87;;;5.30;;
17496;SDS011;62150;43.582;1.456;2023-02-28T13:01:13;11.20;;;4.97;;
17496;SDS011;62150;43.582;1.456;2023-02-28T13:07:13;11.33;;;5.27;;
17496;SDS011;62150;43.582;1.456;2023-02-28T13:09:59;11.60;;;5.03;;
17496;SDS011;62150;43.582;1.456;2023-02-28T13:12:31;11.33;;;5.20;;
17496;SDS011;62150;43.582;1.456;2023-02-28T13:15:04;10.20;;;5.07;;
17496;SDS011;62150;43.582;1.456;2023-02-28T13:17:38;11.47;;;5.50;;
17496;SDS011;62150;43.582;1.456;2023-02-28T13:20:14;11.60;;;5.20;;
17496;SDS011;62150;43.582;1.456;2023-02-28T13:22:45;10.03;;;5.23;;
17496;SDS011;62150;43.582;1.456;2023-02-28T13:31:24;11.07;;;4.73;;
17496;SDS011;62150;43.582;1.456;2023-02-28T13:34:11;10.70;;;5.33;;
17496;SDS011;62150;43.582;1.456;2023-02-28T13:36:40;10.93;;;5.20;;
17496;SDS011;62150;43.582;1.456;2023-02-28T13:42:34;9.97;;;4.60;;
17496;SDS011;62150;43.582;1.456;2023-02-28T13:45:21;9.57;;;4.87;;
17496;SDS011;62150;43.582;1.456;2023-02-28T13:47:51;11.27;;;5.40;;
17496;SDS011;62150;43.582;1.456;2023-02-28T13:50:30;9.97;;;4.97;;
17496;SDS011;62150;43.582;1.456;2023-02-28T13:53:08;10.70;;;4.77;;
17496;SDS011;62150;43.582;1.456;2023-02-28T13:56:09;10.83;;;4.83;;
17496;SDS011;62150;43.582;1.456;2023-02-28T13:58:51;8.83;;;3.93;;
17496;SDS011;62150;43.582;1.456;2023-02-28T14:01:32;9.40;;;4.60;;
17496;SDS011;62150;43.582;1.456;2023-02-28T14:04:25;8.67;;;4.17;;
17496;SDS011;62150;43.582;1.456;2023-02-28T14:07:16;8.13;;;3.90;;
17496;SDS011;62150;43.582;1.456;2023-02-28T14:09:48;9.70;;;4.40;;
17496;SDS011;62150;43.582;1.456;2023-02-28T14:15:40;9.83;;;4.30;;
17496;SDS011;62150;43.582;1.456;2023-02-28T14:18:20;10.17;;;4.47;;
17496;SDS011;62150;43.582;1.456;2023-02-28T14:20:52;9.93;;;5.00;;
17496;SDS011;62150;43.582;1.456;2023-02-28T14:23:43;9.33;;;4.47;;
17496;SDS011;62150;43.582;1.456;2023-02-28T14:26:28;9.37;;;4.83;;
17496;SDS011;62150;43.582;1.456;2023-02-28T14:29:26;11.17;;;4.90;;
17496;SDS011;62150;43.582;1.456;2023-02-28T14:32:11;10.03;;;5.00;;
17496;SDS011;62150;43.582;1.456;2023-02-28T14:34:49;12.50;;;5.57;;
17496;SDS011;62150;43.582;1.456;2023-02-28T14:37:23;10.87;;;5.17;;
17496;SDS011;62150;43.582;1.456;2023-02-28T14:39:55;11.60;;;5.13;;
17496;SDS011;62150;43.582;1.456;2023-02-28T14:42:31;9.40;;;4.33;;
17496;SDS011;62150;43.582;1.456;2023-02-28T14:45:04;9.93;;;4.73;;
17496;SDS011;62150;43.582;1.456;2023-02-28T14:47:32;10.57;;;4.60;;
17496;SDS011;62150;43.582;1.456;2023-02-28T14:50:03;12.20;;;5.23;;
17496;SDS011;62150;43.582;1.456;2023-02-28T14:52:32;9.97;;;4.57;;
17496;SDS011;62150;43.582;1.456;2023-02-28T14:55:00;10.00;;;4.83;;
17496;SDS011;62150;43.582;1.456;2023-02-28T14:57:32;9.47;;;4.37;;
17496;SDS011;62150;43.582;1.456;2023-02-28T15:00:03;9.03;;;4.30;;
17496;SDS011;62150;43.582;1.456;2023-02-28T15:02:40;10.00;;;4.70;;
17496;SDS011;62150;43.582;1.456;2023-02-28T15:05:25;10.10;;;4.43;;
17496;SDS011;62150;43.582;1.456;2023-02-28T15:08:02;10.80;;;4.60;;
17496;SDS011;62150;43.582;1.456;2023-02-28T15:10:33;9.10;;;3.83;;
17496;SDS011;62150;43.582;1.456;2023-02-28T15:13:02;9.80;;;4.70;;
17496;SDS011;62150;43.582;1.456;2023-02-28T15:15:44;10.20;;;4.37;;
17496;SDS011;62150;43.582;1.456;2023-02-28T15:18:25;9.40;;;4.33;;
17496;SDS011;62150;43.582;1.456;2023-02-28T15:20:58;8.83;;;3.90;;
17496;SDS011;62150;43.582;1.456;2023-02-28T15:23:28;9.93;;;4.60;;
17496;SDS011;62150;43.582;1.456;2023-02-28T15:25:57;9.60;;;4.30;;
17496;SDS011;62150;43.582;1.456;2023-02-28T15:28:26;9.20;;;4.07;;
17496;SDS011;62150;43.582;1.456;2023-02-28T15:30:57;9.23;;;3.97;;
17496;SDS011;62150;43.582;1.456;2023-02-28T15:33:27;7.93;;;3.87;;
17496;SDS011;62150;43.582;1.456;2023-02-28T15:36:11;10.50;;;4.30;;
17496;SDS011;62150;43.582;1.456;2023-02-28T15:38:42;8.87;;;4.13;;
17496;SDS011;62150;43.582;1.456;2023-02-28T15:41:21;10.03;;;4.40;;
17496;SDS011;62150;43.582;1.456;2023-02-28T15:46:42;10.67;;;4.33;;
17496;SDS011;62150;43.582;1.456;2023-02-28T15:49:19;10.70;;;4.57;;
17496;SDS011;62150;43.582;1.456;2023-02-28T15:51:48;11.63;;;5.07;;
17496;SDS011;62150;43.582;1.456;2023-02-28T15:54:18;11.00;;;4.73;;
17496;SDS011;62150;43.582;1.456;2023-02-28T15:56:50;10.77;;;5.00;;
17496;SDS011;62150;43.582;1.456;2023-02-28T15:59:21;10.03;;;4.90;;
17496;SDS011;62150;43.582;1.456;2023-02-28T16:04:55;10.43;;;4.60;;
17496;SDS011;62150;43.582;1.456;2023-02-28T16:07:28;9.07;;;4.10;;
17496;SDS011;62150;43.582;1.456;2023-02-28T16:09:56;9.17;;;3.97;;
17496;SDS011;62150;43.582;1.456;2023-02-28T16:12:25;8.10;;;3.80;;
17496;SDS011;62150;43.582;1.456;2023-02-28T16:14:54;9.87;;;4.07;;
17496;SDS011;62150;43.582;1.456;2023-02-28T16:17:25;10.10;;;4.83;;
17496;SDS011;62150;43.582;1.456;2023-02-28T16:19:55;11.07;;;4.67;;
17496;SDS011;62150;43.582;1.456;2023-02-28T16:22:23;9.87;;;4.80;;
17496;SDS011;62150;43.582;1.456;2023-02-28T16:24:51;10.33;;;4.70;;
17496;SDS011;62150;43.582;1.456;2023-02-28T16:27:20;9.60;;;4.40;;
17496;SDS011;62150;43.582;1.456;2023-02-28T16:29:54;9.70;;;4.73;;
17496;SDS011;62150;43.582;1.456;2023-02-28T16:32:21;9.53;;;4.20;;
17496;SDS011;62150;43.582;1.456;2023-02-28T16:34:50;10.73;;;4.87;;
17496;SDS011;62150;43.582;1.456;2023-02-28T16:37:18;9.87;;;4.63;;
17496;SDS011;62150;43.582;1.456;2023-02-28T16:39:45;10.57;;;4.43;;
17496;SDS011;62150;43.582;1.456;2023-02-28T16:42:14;9.67;;;4.20;;
17496;SDS011;62150;43.582;1.456;2023-02-28T16:44:48;8.80;;;4.30;;
17496;SDS011;62150;43.582;1.456;2023-02-28T16:47:15;10.13;;;4.47;;
17496;SDS011;62150;43.582;1.456;2023-02-28T16:49:43;10.00;;;4.37;;
17496;SDS011;62150;43.582;1.456;2023-02-28T16:52:14;9.33;;;4.40;;
17496;SDS011;62150;43.582;1.456;2023-02-28T16:54:41;10.37;;;4.50;;
17496;SDS011;62150;43.582;1.456;2023-02-28T16:57:13;8.47;;;3.87;;
17496;SDS011;62150;43.582;1.456;2023-02-28T16:59:47;8.57;;;4.27;;
17496;SDS011;62150;43.582;1.456;2023-02-28T17:02:15;9.47;;;4.63;;
17496;SDS011;62150;43.582;1.456;2023-02-28T17:04:45;9.77;;;4.17;;
17496;SDS011;62150;43.582;1.456;2023-02-28T17:07:15;11.27;;;4.90;;
17496;SDS011;62150;43.582;1.456;2023-02-28T17:09:43;9.40;;;4.37;;
17496;SDS011;62150;43.582;1.456;2023-02-28T17:12:10;10.40;;;4.67;;
17496;SDS011;62150;43.582;1.456;2023-02-28T17:14:39;9.53;;;4.37;;
17496;SDS011;62150;43.582;1.456;2023-02-28T17:17:07;10.63;;;4.87;;
17496;SDS011;62150;43.582;1.456;2023-02-28T17:19:36;9.00;;;4.30;;
17496;SDS011;62150;43.582;1.456;2023-02-28T17:22:08;10.53;;;4.63;;
17496;SDS011;62150;43.582;1.456;2023-02-28T17:24:37;10.07;;;4.73;;
17496;SDS011;62150;43.582;1.456;2023-02-28T17:27:05;10.23;;;4.77;;
17496;SDS011;62150;43.582;1.456;2023-02-28T17:29:35;9.70;;;4.60;;
17496;SDS011;62150;43.582;1.456;2023-02-28T17:32:02;10.77;;;5.00;;
17496;SDS011;62150;43.582;1.456;2023-02-28T17:34:30;9.03;;;4.27;;
17496;SDS011;62150;43.582;1.456;2023-02-28T17:36:58;11.63;;;5.10;;
17496;SDS011;62150;43.582;1.456;2023-02-28T17:39:25;10.23;;;4.60;;
17496;SDS011;62150;43.582;1.456;2023-02-28T17:41:54;9.63;;;4.57;;
17496;SDS011;62150;43.582;1.456;2023-02-28T17:44:22;9.67;;;4.40;;
17496;SDS011;62150;43.582;1.456;2023-02-28T17:46:51;9.43;;;4.70;;
17496;SDS011;62150;43.582;1.456;2023-02-28T17:49:20;9.97;;;4.33;;
17496;SDS011;62150;43.582;1.456;2023-02-28T17:51:48;9.60;;;4.20;;
17496;SDS011;62150;43.582;1.456;2023-02-28T17:54:16;9.27;;;4.40;;
17496;SDS011;62150;43.582;1.456;2023-02-28T17:56:43;11.07;;;4.67;;
17496;SDS011;62150;43.582;1.456;2023-02-28T17:59:13;10.00;;;4.47;;
17496;SDS011;62150;43.582;1.456;2023-02-28T18:01:40;12.23;;;5.13;;
17496;SDS011;62150;43.582;1.456;2023-02-28T18:04:08;9.90;;;4.53;;
17496;SDS011;62150;43.582;1.456;2023-02-28T18:06:36;10.53;;;4.83;;
17496;SDS011;62150;43.582;1.456;2023-02-28T18:09:11;10.23;;;4.50;;
17496;SDS011;62150;43.582;1.456;2023-02-28T18:11:39;10.33;;;4.53;;
17496;SDS011;62150;43.582;1.456;2023-02-28T18:14:14;10.70;;;5.07;;
17496;SDS011;62150;43.582;1.456;2023-02-28T18:16:43;11.73;;;5.50;;
17496;SDS011;62150;43.582;1.456;2023-02-28T18:19:11;12.20;;;5.57;;
17496;SDS011;62150;43.582;1.456;2023-02-28T18:21:41;10.67;;;5.13;;
17496;SDS011;62150;43.582;1.456;2023-02-28T18:24:09;11.00;;;5.23;;
17496;SDS011;62150;43.582;1.456;2023-02-28T18:26:37;10.57;;;5.00;;
17496;SDS011;62150;43.582;1.456;2023-02-28T18:29:06;11.97;;;6.07;;
17496;SDS011;62150;43.582;1.456;2023-02-28T18:31:36;12.13;;;6.30;;
17496;SDS011;62150;43.582;1.456;2023-02-28T18:34:03;12.13;;;6.13;;
17496;SDS011;62150;43.582;1.456;2023-02-28T18:36:31;11.90;;;5.40;;
17496;SDS011;62150;43.582;1.456;2023-02-28T18:38:58;12.23;;;5.87;;
17496;SDS011;62150;43.582;1.456;2023-02-28T18:41:26;10.60;;;4.73;;
17496;SDS011;62150;43.582;1.456;2023-02-28T18:43:54;10.87;;;5.20;;
17496;SDS011;62150;43.582;1.456;2023-02-28T18:46:21;12.23;;;5.27;;
17496;SDS011;62150;43.582;1.456;2023-02-28T18:48:50;10.57;;;4.57;;
17496;SDS011;62150;43.582;1.456;2023-02-28T18:51:18;10.30;;;4.77;;
17496;SDS011;62150;43.582;1.456;2023-02-28T18:53:48;9.57;;;4.43;;
17496;SDS011;62150;43.582;1.456;2023-02-28T18:56:17;10.50;;;4.70;;
17496;SDS011;62150;43.582;1.456;2023-02-28T18:58:47;9.30;;;4.43;;
17496;SDS011;62150;43.582;1.456;2023-02-28T19:01:16;11.10;;;5.33;;
17496;SDS011;62150;43.582;1.456;2023-02-28T19:03:45;12.27;;;5.10;;
17496;SDS011;62150;43.582;1.456;2023-02-28T19:06:15;10.87;;;4.83;;
17496;SDS011;62150;43.582;1.456;2023-02-28T19:08:43;10.20;;;4.20;;
17496;SDS011;62150;43.582;1.456;2023-02-28T19:11:11;10.20;;;4.63;;
17496;SDS011;62150;43.582;1.456;2023-02-28T19:13:40;10.93;;;5.30;;
17496;SDS011;62150;43.582;1.456;2023-02-28T19:16:09;11.23;;;5.13;;
17496;SDS011;62150;43.582;1.456;2023-02-28T19:18:38;10.63;;;4.90;;
17496;SDS011;62150;43.582;1.456;2023-02-28T19:21:05;14.53;;;6.77;;
17496;SDS011;62150;43.582;1.456;2023-02-28T19:23:35;11.13;;;5.27;;
17496;SDS011;62150;43.582;1.456;2023-02-28T19:26:04;12.00;;;5.63;;
17496;SDS011;62150;43.582;1.456;2023-02-28T19:28:32;12.17;;;5.63;;
17496;SDS011;62150;43.582;1.456;2023-02-28T19:31:00;11.93;;;5.50;;
17496;SDS011;62150;43.582;1.456;2023-02-28T19:33:28;10.93;;;4.87;;
17496;SDS011;62150;43.582;1.456;2023-02-28T19:35:57;10.90;;;4.70;;
17496;SDS011;62150;43.582;1.456;2023-02-28T19:38:26;9.03;;;4.20;;
17496;SDS011;62150;43.582;1.456;2023-02-28T19:41:00;11.77;;;5.20;;
17496;SDS011;62150;43.582;1.456;2023-02-28T19:43:28;10.77;;;4.90;;
17496;SDS011;62150;43.582;1.456;2023-02-28T19:45:55;11.13;;;5.30;;
17496;SDS011;62150;43.582;1.456;2023-02-28T19:48:28;11.07;;;5.27;;
17496;SDS011;62150;43.582;1.456;2023-02-28T19:50:56;10.77;;;4.90;;
17496;SDS011;62150;43.582;1.456;2023-02-28T19:53:24;11.40;;;5.23;;
17496;SDS011;62150;43.582;1.456;2023-02-28T19:55:52;10.97;;;4.57;;
17496;SDS011;62150;43.582;1.456;2023-02-28T19:58:21;10.63;;;5.10;;
17496;SDS011;62150;43.582;1.456;2023-02-28T20:00:49;9.37;;;4.47;;
17496;SDS011;62150;43.582;1.456;2023-02-28T20:03:17;9.97;;;4.60;;
17496;SDS011;62150;43.582;1.456;2023-02-28T20:05:45;12.43;;;5.53;;
17496;SDS011;62150;43.582;1.456;2023-02-28T20:08:13;10.00;;;4.80;;
17496;SDS011;62150;43.582;1.456;2023-02-28T20:10:43;11.00;;;5.07;;
17496;SDS011;62150;43.582;1.456;2023-02-28T20:13:11;11.80;;;5.60;;
17496;SDS011;62150;43.582;1.456;2023-02-28T20:15:40;11.10;;;5.47;;
17496;SDS011;62150;43.582;1.456;2023-02-28T20:18:07;10.37;;;5.10;;
17496;SDS011;62150;43.582;1.456;2023-02-28T20:20:35;11.77;;;5.37;;
17496;SDS011;62150;43.582;1.456;2023-02-28T20:23:05;12.83;;;6.40;;
17496;SDS011;62150;43.582;1.456;2023-02-28T20:25:37;10.67;;;5.17;;
17496;SDS011;62150;43.582;1.456;2023-02-28T20:28:05;10.47;;;5.00;;
17496;SDS011;62150;43.582;1.456;2023-02-28T20:30:32;9.87;;;4.63;;
17496;SDS011;62150;43.582;1.456;2023-02-28T20:33:01;10.50;;;5.07;;
17496;SDS011;62150;43.582;1.456;2023-02-28T20:35:29;10.80;;;4.93;;
17496;SDS011;62150;43.582;1.456;2023-02-28T20:37:57;10.40;;;5.20;;
17496;SDS011;62150;43.582;1.456;2023-02-28T20:40:25;10.33;;;4.90;;
17496;SDS011;62150;43.582;1.456;2023-02-28T20:42:53;11.03;;;5.13;;
17496;SDS011;62150;43.582;1.456;2023-02-28T20:45:20;10.37;;;5.17;;
17496;SDS011;62150;43.582;1.456;2023-02-28T20:47:49;13.27;;;6.10;;
17496;SDS011;62150;43.582;1.456;2023-02-28T20:50:18;11.37;;;5.50;;
17496;SDS011;62150;43.582;1.456;2023-02-28T20:52:46;13.20;;;6.10;;
17496;SDS011;62150;43.582;1.456;2023-02-28T20:55:17;11.93;;;5.67;;
17496;SDS011;62150;43.582;1.456;2023-02-28T20:57:45;12.00;;;5.97;;
17496;SDS011;62150;43.582;1.456;2023-02-28T21:00:14;12.30;;;5.97;;
17496;SDS011;62150;43.582;1.456;2023-02-28T21:02:43;13.10;;;6.30;;
17496;SDS011;62150;43.582;1.456;2023-02-28T21:05:11;11.70;;;5.63;;
17496;SDS011;62150;43.582;1.456;2023-02-28T21:07:40;12.30;;;6.03;;
17496;SDS011;62150;43.582;1.456;2023-02-28T21:10:08;11.17;;;5.50;;
17496;SDS011;62150;43.582;1.456;2023-02-28T21:12:36;11.60;;;5.53;;
17496;SDS011;62150;43.582;1.456;2023-02-28T21:15:04;12.13;;;5.93;;
17496;SDS011;62150;43.582;1.456;2023-02-28T21:17:32;11.50;;;5.60;;
17496;SDS011;62150;43.582;1.456;2023-02-28T21:20:00;11.67;;;5.53;;
17496;SDS011;62150;43.582;1.456;2023-02-28T21:22:27;11.07;;;5.23;;
17496;SDS011;62150;43.582;1.456;2023-02-28T21:24:56;12.00;;;5.63;;
17496;SDS011;62150;43.582;1.456;2023-02-28T21:27:24;12.73;;;6.30;;
17496;SDS011;62150;43.582;1.456;2023-02-28T21:29:51;11.13;;;5.63;;
17496;SDS011;62150;43.582;1.456;2023-02-28T21:32:19;12.00;;;5.87;;
17496;SDS011;62150;43.582;1.456;2023-02-28T21:34:46;13.03;;;5.83;;
17496;SDS011;62150;43.582;1.456;2023-02-28T21:37:17;12.20;;;5.70;;